Mesquite, Nevada Weather observations

Data are for observation ending at time listed.
 Day   Time    Ave.   Ave.  Ave.  Vector   Max.   Stn.    Total    Solar   Ave.  
  of    of     Air    Rel.  Wind   Wind    Wind   Baro.  Precip.   Rad.    Soil  
Year   Day     Temp.  Hum.  Speed  Dir.    Gust   Pres.                    Temp. 
2019   (PST)    F      %     mph   deg.    mph     mb.     in.     W/m2     F   
------------------------------------------------------------------------------
 109   10:40   83.3    16    1.8   275      5.0   950.9    0.00     630    76.6
 109   10:50   84.5    16    0.7   275      3.6   950.7    0.00     713    77.1
 109   11:00   86.1    15    1.2   236      4.2   950.6    0.00     710    77.6
 109   11:10   86.4    15    0.7   344      3.2   950.4    0.00     714    78.2
 109   11:20   86.0    14    2.1   260      5.4   950.2    0.00     717    78.7
 109   11:30   86.7    14    1.7    68      4.7   950.1    0.00     716    79.3
 109   11:40   87.8    13    1.3    85      3.3   949.9    0.00     718    79.9
 109   11:50   88.5    14    2.7   223      6.1   949.8    0.00     739    80.4
 109   12:00   87.5    14    1.3   296      4.7   949.6    0.00     687    81.0
 109   12:10   89.1    14    2.4   198      6.4   949.5    0.00     613    81.5
 109   12:20   88.7    14    2.1   222      6.7   949.3    0.00     720    82.0
 109   12:30   88.4    14    3.5   236      6.7   949.1    0.00     695    82.5
 109   12:40   87.5    14    3.3   257      7.0   948.9    0.00     522    83.0
 109   12:50   89.4    13    2.1   195      6.0   948.8    0.00     608    83.4
 109   13:00   89.9    13    3.0   258      6.6   948.6    0.00     693    83.9
 109   13:10   90.0    13    3.2   250      8.7   948.5    0.00     695    84.2
 109   13:20   90.3    11    6.6   239     13.0   948.3    0.00     673    84.6
 109   13:30   90.0    11    6.2   249     12.2   948.1    0.00     653    85.0
 109   13:40   90.1    10    7.2   243     12.7   947.9    0.00     646    85.4
 109   13:50   89.9    11    5.8   234     13.7   947.6    0.00     440    85.7
 109   14:00   90.3    11    3.4   201      6.9   947.5    0.00     489    86.1
 109   14:10   90.8    11    5.4   222     12.3   947.2    0.00     377    86.4
 109   14:20   91.0    11    5.0   240     11.0   947.0    0.00     574    86.6
 109   14:30   90.8    11    4.3   233      9.6   946.8    0.00     430    86.8
 109   14:40   90.6    11    3.1   228      8.6   946.6    0.00     325    87.0
 109   14:50   89.7    11    5.9   238     11.3   946.5    0.00     230    87.1
 109   15:00   90.1    10    6.3   243     11.5   946.3    0.00     574    87.3
 109   15:10   90.6    10    7.1   260     14.6   945.9    0.00     471    87.3
 109   15:20   90.6    10    5.3   258     10.7   945.6    0.00     450    87.4
 109   15:30   90.2    10    5.5   257      9.9   945.6    0.00     234    87.4
 109   15:40   89.9    10    5.8   264      9.1   945.8    0.00     278    87.5
 109   15:50   90.3    10    6.0   257     11.7   945.6    0.00     323    87.5
 109   16:00   90.1    10    5.3   253     10.6   945.6    0.00     291    87.5
 109   16:10   90.4    10    6.5   268     12.1   945.4    0.00     339    87.5
 109   16:20   90.3    11    5.4   255     10.2   945.2    0.00     259    87.4
 109   16:30   90.6    10    4.9   250     10.1   945.1    0.00     257    87.4
 109   16:40   90.5    11    4.6   243      8.1   945.0    0.00     216    87.3
 109   16:50   90.2    11    3.9   257      7.2   944.8    0.00     185    87.3
 109   17:00   89.3    11    3.3   264      6.3   944.7    0.00      97    87.2
 109   17:10   89.5    11    1.4   233      3.8   944.6    0.00     114    87.2
 109   17:20   89.2    11    1.7   243      6.0   944.5    0.00      64    87.1
 109   17:30   88.0    12    2.7   248      7.2   944.4    0.00      54    86.9
 109   17:40   87.5    12    1.9   250      4.2   944.4    0.00      44    86.8
 109   17:50   86.9    12    1.6   242      5.7   944.3    0.00      20    86.6
 109   18:00   86.2    12    0.5   256      2.9   944.2    0.00      13    86.4
 109   18:10   84.9    13    0.0     0      0.0   944.2    0.00       6    86.1
 109   18:20   83.3    14    1.1    50      2.9   944.1    0.00       3    85.9
 109   18:30   81.8    15    2.6    56      3.0   944.1    0.00       2    85.7
 109   18:40   80.8    18    0.9    74      2.1   944.2    0.00       1    85.4
 109   18:50   81.4    14    1.8   115      3.1   944.1    0.00       1    85.2
 109   19:00   81.5    15    3.3   128      4.2   944.1    0.00       1    84.9
 109   19:10   79.6    17    1.5    92      3.4   944.3    0.00       1    84.6
 109   19:20   77.3    22    2.7   118      3.8   944.3    0.00       1    84.4
 109   19:30   75.9    24    3.7   130      5.3   944.3    0.00       1    84.2
 109   19:40   75.9    24    1.9   119      5.5   944.4    0.00       1    83.9
 109   19:50   74.9    25    2.9    92      4.2   944.5    0.00       1    83.7
 109   20:00   74.8    25    0.6    75      3.7   944.5    0.00       1    83.5
 109   20:10   75.3    24    0.0     0      0.0   944.6    0.00       1    83.2
 109   20:20   75.4    23    2.3    93      4.3   944.6    0.00       1    83.0
 109   20:30   73.9    26    3.5    71      4.7   944.6    0.00       1    82.8
 109   20:40   72.3    28    4.1    69      4.6   944.6    0.00       1    82.6
 109   20:50   71.6    28    4.4    62      5.3   944.6    0.00       1    82.5
 109   21:00   71.1    29    4.3    50      5.8   944.5    0.00       1    82.3
 109   21:10   71.8    26    2.8    55      3.9   944.4    0.00       1    82.0
 109   21:20   71.2    27    2.8    95      4.2   944.4    0.00       1    81.8
 109   21:30   69.8    28    2.7    70      3.6   944.4    0.00       1    81.7
 109   21:40   69.8    27    2.1    71      3.1   944.4    0.00       1    81.5
 109   21:50   70.1    27    0.5    72      1.4   944.4    0.00       1    81.3
 109   22:00   69.2    28    1.3    66      2.2   944.2    0.00       1    81.1
 109   22:10   68.6    28    2.8    16      6.4   944.1    0.00       1    80.9
 109   22:20   69.3    26    4.5    50      7.4   944.2    0.00       1    80.7
 109   22:30   67.3    29    4.4    52      5.8   944.2    0.00       1    80.5
 109   22:40   67.0    29    2.7    65      3.6   944.3    0.00       0    80.4
 109   22:50   66.5    30    2.1    77      2.7   944.3    0.00       0    80.2
 109   23:00   66.7    30    2.6    55      4.2   944.3    0.00       0    80.0
 109   23:10   65.1    32    6.1    68      8.2   944.2    0.00       0    79.8
 109   23:20   64.7    32    2.0   116      4.7   944.3    0.00       0    79.6
 109   23:30   65.4    31    2.2    51      4.2   944.2    0.00       1    79.4
 109   23:40   65.0    31    1.4     4      3.1   944.1    0.00       0    79.3
 109   23:50   66.1    31    2.4   265      5.0   944.0    0.00       0    79.1
 110    0:00   66.5    31    3.1   238      5.7   943.9    0.00       0    78.9
 110    0:10   66.5    30    2.7   228      5.0   943.8    0.00       0    78.7
 110    0:20   65.5    31    3.6   162      6.8   943.8    0.00       0    78.6
 110    0:30   63.8    33    3.8   141      5.4   943.7    0.00       0    78.4
 110    0:40   62.3    36    5.9   104      8.6   943.5    0.00       0    78.3
 110    0:50   61.1    38    5.3    93      6.7   943.3    0.00       0    78.1
 110    1:00   60.7    38    5.2    81      6.6   943.1    0.00       0    78.0
 110    1:10   60.3    39    4.6    52      7.0   942.9    0.00       0    77.8
 110    1:20   61.0    36    5.1    45      6.5   942.8    0.00       0    77.6
 110    1:30   61.5    34    3.1    28      5.8   942.8    0.00       0    77.5
 110    1:40   63.3    32    1.7    82      4.0   942.9    0.00       0    77.3
 110    1:50   63.2    32    1.0    15      3.4   942.8    0.00       0    77.2
 110    2:00   63.7    32    1.1   140      3.3   942.8    0.00       0    77.0
 110    2:10   62.9    34    2.0   106      4.7   942.8    0.00       0    76.9
 110    2:20   61.8    36    1.6   112      2.8   942.9    0.00       0    76.7
 110    2:30   62.0    36    2.5   121      4.2   943.0    0.00       0    76.6
 110    2:40   62.0    36    1.1    73      2.9   942.8    0.00       0    76.5
 110    2:50   62.0    36    2.1    41      3.8   942.5    0.00       0    76.4
 110    3:00   62.4    34    1.6   342      3.2   942.4    0.00       1    76.2
 110    3:10   63.1    33    2.3   161      4.7   942.4    0.00       0    76.1
 110    3:20   62.9    33    0.9   104      3.2   942.3    0.00       0    76.0
 110    3:30   62.8    34    2.6   261      5.3   942.2    0.00       0    75.8
 110    3:40   62.3    36    2.8   214      8.2   942.1    0.00       0    75.7
 110    3:50   61.8    39    3.1   224      6.1   942.2    0.00       0    75.6
 110    4:00   61.5    40    1.8   259      4.9   942.2    0.00       0    75.5
 110    4:10   61.0    42    2.7   269      4.9   942.2    0.00       0    75.4
 110    4:20   59.9    44    2.4    86      3.5   942.3    0.00       1    75.3
 110    4:30   58.0    48    2.7    48      3.6   942.3    0.00       1    75.2
 110    4:40   58.1    47    3.1    45      3.8   942.4    0.00       1    75.1
 110    4:50   57.8    46    3.7    40      4.7   942.5    0.00       2    75.0
 110    5:00   58.1    44    3.8    46      4.2   942.7    0.00       3    74.9
 110    5:10   58.7    42    3.5    34      4.3   942.7    0.00       6    74.7
 110    5:20   59.7    39    3.3    26      4.3   942.8    0.00      16    74.6
 110    5:30   60.2    40    3.1    49      5.0   942.9    0.00      29    74.4
 110    5:40   59.2    43    2.1    26      3.4   943.1    0.00      41    74.3
 110    5:50   60.0    44    3.7    99      6.1   943.2    0.00      46    74.2
 110    6:00   59.8    46    3.1    98      4.7   943.4    0.00      64    74.1
 110    6:10   62.1    41    2.1    22      3.2   943.4    0.00      89    74.0
 110    6:20   65.2    34    1.4     2      2.9   943.4    0.00     151    74.0
 110    6:30   67.8    30    1.9   321      3.9   943.6    0.00     229    73.9
 110    6:40   67.9    31    2.8   308      4.0   943.6    0.00     168    73.8
 110    6:50   68.6    30    2.1   296      3.7   943.7    0.00     114    73.8
 110    7:00   69.4    30    2.0   240      4.2   943.7    0.00     158    73.8
 110    7:10   66.5    42    3.9   145      5.3   943.9    0.00     118    73.8
 110    7:20   65.5    44    2.6   131      5.1   943.9    0.00     151    73.8
 110    7:30   67.1    36    3.1   108      4.4   943.8    0.00     341    73.8
 110    7:40   69.9    31    2.9   127      4.3   943.8    0.00     321    73.8
 110    7:50   69.5    32    2.8   130      5.2   943.8    0.00     132    73.8
 110    8:00   69.0    32    1.6   119      4.1   943.9    0.00     110    73.8
 110    8:10   69.2    31    1.2    95      3.7   943.8    0.00     116    73.9
 110    8:20   69.7    30    0.0     0      0.0   943.7    0.00      81    74.0
 110    8:30   69.9    30    0.4   305      1.3   943.6    0.00     134    74.0
 110    8:40   71.3    29    0.7   283      2.0   943.5    0.00     376    74.0
 110    8:50   76.6    24    0.1   299      1.3   943.5    0.00     599    74.0
 110    9:00   78.0    23    0.8   288      2.9   943.6    0.00     586    74.1
 110    9:10   78.0    23    1.7   303      3.5   943.6    0.00     452    74.2
 110    9:20   78.7    24    1.5   308      5.3   943.6    0.00     599    74.5
 110    9:30   79.8    20    3.7   291      7.1   943.5    0.00     611    74.8
 110    9:40   80.5    18    4.0   263      7.3   943.5    0.00     624    75.2
 110    9:50   81.1    18    5.3   270      8.8   943.6    0.00     637    75.7
 110   10:00   81.4    17    5.1   266      9.1   943.5    0.00     648    76.1
 110   10:10   82.5    17    3.9   242      7.8   943.5    0.00     656    76.6
 110   10:20   83.3    16    4.0   229      9.3   943.3    0.00     669    77.1
 110   10:30   83.7    15    5.1   267      9.4   943.1    0.00     710    77.6

Return to Mesquite, Nevada graphs page.


Western Regional Climate Center,wrcc@dri.edu